createdAt,value
2023-05-13T00:00:57.407Z,5.88
2023-05-13T00:03:24.019Z,6.43
2023-05-13T00:05:50.732Z,6.00
2023-05-13T00:08:17.332Z,6.15
2023-05-13T00:10:43.804Z,6.18
2023-05-13T00:13:10.315Z,6.20
2023-05-13T00:15:38.210Z,6.57
2023-05-13T00:18:04.804Z,6.18
2023-05-13T00:20:31.337Z,6.20
2023-05-13T00:22:57.854Z,6.20
2023-05-13T00:25:24.379Z,6.63
2023-05-13T00:27:50.870Z,6.68
2023-05-13T00:30:17.451Z,6.13
2023-05-13T00:32:45.425Z,5.97
2023-05-13T00:35:12.097Z,5.93
2023-05-13T00:37:38.618Z,6.30
2023-05-13T00:40:06.486Z,5.68
2023-05-13T00:42:32.966Z,6.55
2023-05-13T00:44:59.455Z,5.70
2023-05-13T00:47:26.010Z,6.35
2023-05-13T00:49:54.246Z,6.50
2023-05-13T00:52:20.721Z,5.90
2023-05-13T00:54:47.208Z,6.60
2023-05-13T00:57:13.730Z,5.97
2023-05-13T00:59:40.291Z,5.90
2023-05-13T01:02:27.387Z,5.57
2023-05-13T01:05:02.972Z,6.32
2023-05-13T01:07:38.115Z,6.40
2023-05-13T01:10:09.540Z,5.40
2023-05-13T01:12:38.679Z,5.80
2023-05-13T01:15:07.985Z,5.40
2023-05-13T01:17:41.258Z,5.75
2023-05-13T01:20:11.001Z,4.95
2023-05-13T01:22:38.852Z,4.70
2023-05-13T01:25:05.963Z,5.38
2023-05-13T01:27:32.568Z,5.32
2023-05-13T01:30:00.044Z,5.75
2023-05-13T01:32:26.755Z,5.22
2023-05-13T01:34:55.234Z,6.10
2023-05-13T01:37:21.915Z,5.72
2023-05-13T01:39:51.015Z,5.35
2023-05-13T01:42:17.646Z,5.53
2023-05-13T01:44:44.160Z,5.03
2023-05-13T01:47:10.718Z,5.47
2023-05-13T01:49:37.234Z,5.03
2023-05-13T01:52:04.236Z,5.03
2023-05-13T01:54:30.724Z,5.20
2023-05-13T01:56:58.612Z,5.63
2023-05-13T01:59:25.165Z,6.65
2023-05-13T02:01:51.685Z,5.03
2023-05-13T02:04:18.256Z,5.70
2023-05-13T02:06:44.732Z,5.60
2023-05-13T02:09:11.228Z,5.25
2023-05-13T02:11:37.725Z,5.40
2023-05-13T02:14:05.599Z,5.35
2023-05-13T02:16:32.240Z,5.93
2023-05-13T02:18:58.841Z,5.88
2023-05-13T02:21:25.403Z,5.57
2023-05-13T02:23:51.854Z,5.45
2023-05-13T02:26:18.348Z,5.55
2023-05-13T02:28:44.823Z,5.95
2023-05-13T02:31:12.687Z,5.80
2023-05-13T02:33:39.232Z,6.00
2023-05-13T02:36:06.071Z,6.10
2023-05-13T02:38:32.573Z,6.45
2023-05-13T02:40:59.204Z,6.45
2023-05-13T02:43:25.727Z,5.90
2023-05-13T02:45:52.279Z,6.05
2023-05-13T02:48:20.125Z,5.78
2023-05-13T02:50:46.694Z,5.72
2023-05-13T02:53:13.275Z,5.80
2023-05-13T02:55:39.806Z,5.78
2023-05-13T02:58:06.315Z,6.28
2023-05-13T03:00:32.819Z,5.82
2023-05-13T03:02:59.479Z,6.30
2023-05-13T03:05:29.191Z,6.30
2023-05-13T03:07:56.408Z,6.35
2023-05-13T03:10:23.159Z,6.90
2023-05-13T03:12:50.065Z,6.55
2023-05-13T03:15:16.824Z,6.20
2023-05-13T03:17:43.482Z,6.82
2023-05-13T03:20:11.046Z,7.43
2023-05-13T03:22:38.966Z,6.60
2023-05-13T03:25:05.855Z,6.60
2023-05-13T03:27:32.463Z,6.80
2023-05-13T03:29:59.086Z,6.43
2023-05-13T03:32:25.612Z,6.55
2023-05-13T03:34:52.111Z,6.03
2023-05-13T03:37:18.584Z,6.95
2023-05-13T03:39:46.566Z,6.72
2023-05-13T03:42:13.255Z,6.55
2023-05-13T03:44:39.772Z,6.43
2023-05-13T03:47:07.658Z,7.28
2023-05-13T03:49:34.274Z,6.72
2023-05-13T03:52:00.772Z,6.97
2023-05-13T03:54:27.272Z,6.88
2023-05-13T03:56:55.092Z,6.43
2023-05-13T03:59:21.580Z,6.47
2023-05-13T04:01:48.109Z,6.22
2023-05-13T04:04:14.607Z,6.40
2023-05-13T04:06:41.144Z,6.28
2023-05-13T04:09:07.675Z,5.95
2023-05-13T04:11:34.193Z,6.75
2023-05-13T04:14:02.055Z,6.97
2023-05-13T04:16:28.641Z,7.18
2023-05-13T04:18:55.195Z,6.53
2023-05-13T04:21:21.694Z,6.10
2023-05-13T04:23:48.196Z,6.57
2023-05-13T04:26:14.713Z,6.60
2023-05-13T04:28:41.171Z,6.65
2023-05-13T04:31:09.003Z,7.47
2023-05-13T04:33:35.471Z,6.93
2023-05-13T04:36:01.944Z,7.60
2023-05-13T04:38:28.461Z,6.60
2023-05-13T04:40:54.952Z,7.00
2023-05-13T04:43:21.487Z,6.90
2023-05-13T04:45:48.549Z,6.30
2023-05-13T04:48:16.500Z,7.03
2023-05-13T04:50:45.718Z,7.40
2023-05-13T04:53:12.460Z,7.20
2023-05-13T04:55:38.915Z,6.60
2023-05-13T04:58:05.477Z,7.03
2023-05-13T05:00:32.303Z,7.35
2023-05-13T05:02:58.884Z,7.10
2023-05-13T05:05:26.856Z,6.97
2023-05-13T05:07:53.351Z,6.70
2023-05-13T05:10:20.225Z,7.43
2023-05-13T05:12:46.823Z,7.55
2023-05-13T05:15:13.299Z,7.30
2023-05-13T05:17:39.874Z,7.25
2023-05-13T05:20:07.845Z,8.18
2023-05-13T05:22:35.813Z,8.15
2023-05-13T05:25:02.296Z,7.93
2023-05-13T05:27:28.817Z,8.40
2023-05-13T05:29:55.299Z,8.55
2023-05-13T05:32:23.388Z,7.90
2023-05-13T05:34:50.039Z,8.13
2023-05-13T05:37:16.510Z,8.30
2023-05-13T05:39:44.374Z,8.40
2023-05-13T05:42:12.197Z,9.75
2023-05-13T05:44:38.672Z,8.73
2023-05-13T05:47:05.662Z,8.30
2023-05-13T05:49:32.111Z,8.40
2023-05-13T05:51:58.582Z,8.15
2023-05-13T05:54:25.120Z,9.02
2023-05-13T05:56:52.966Z,8.63
2023-05-13T05:59:19.487Z,8.25
2023-05-13T06:01:45.993Z,8.73
2023-05-13T06:04:12.681Z,8.95
2023-05-13T06:06:39.322Z,8.55
2023-05-13T06:09:05.992Z,8.70
2023-05-13T06:11:32.477Z,7.97
2023-05-13T06:14:00.474Z,8.65
2023-05-13T06:16:27.037Z,7.57
2023-05-13T06:18:53.863Z,8.48
2023-05-13T06:21:20.446Z,8.00
2023-05-13T06:23:46.943Z,8.77
2023-05-13T06:26:13.465Z,8.63
2023-05-13T06:28:39.911Z,8.65
2023-05-13T06:31:07.769Z,8.57
2023-05-13T06:33:34.452Z,8.70
2023-05-13T06:36:00.970Z,8.40
2023-05-13T06:38:27.447Z,9.00
2023-05-13T06:40:53.927Z,8.05
2023-05-13T06:43:20.435Z,7.88
2023-05-13T06:45:46.954Z,8.30
2023-05-13T06:48:15.561Z,8.50
2023-05-13T06:50:42.061Z,8.88
2023-05-13T06:53:09.345Z,9.75
2023-05-13T06:55:35.814Z,8.23
2023-05-13T06:58:02.313Z,8.07
2023-05-13T07:00:28.776Z,7.82
2023-05-13T07:02:55.273Z,8.55
2023-05-13T07:05:23.341Z,8.60
2023-05-13T07:07:49.824Z,8.63
2023-05-13T07:10:16.416Z,8.52
2023-05-13T07:12:42.960Z,8.32
2023-05-13T07:15:10.241Z,8.60
2023-05-13T07:17:36.904Z,8.52
2023-05-13T07:20:03.796Z,8.32
2023-05-13T07:22:31.687Z,8.07
2023-05-13T07:24:58.214Z,8.40
2023-05-13T07:27:24.869Z,8.40
2023-05-13T07:29:51.470Z,8.52
2023-05-13T07:32:17.970Z,8.43
2023-05-13T07:34:44.505Z,9.32
2023-05-13T07:37:10.999Z,9.48
2023-05-13T07:39:38.762Z,9.15
2023-05-13T07:42:05.808Z,8.43
2023-05-13T07:44:32.294Z,9.18
2023-05-13T07:46:58.810Z,9.00
2023-05-13T07:49:25.311Z,9.20
2023-05-13T07:51:51.789Z,8.80
2023-05-13T07:54:18.297Z,9.60
2023-05-13T07:56:46.199Z,9.02
2023-05-13T07:59:12.729Z,9.60
2023-05-13T08:01:39.320Z,8.45
2023-05-13T08:04:05.952Z,9.68
2023-05-13T08:06:33.009Z,8.90
2023-05-13T08:08:59.659Z,10.00
2023-05-13T08:11:26.185Z,9.15
2023-05-13T08:13:54.186Z,8.55
2023-05-13T08:16:20.718Z,8.93
2023-05-13T08:18:47.376Z,8.68
2023-05-13T08:21:13.898Z,8.63
2023-05-13T08:23:44.913Z,8.43
2023-05-13T08:26:12.667Z,9.65
2023-05-13T08:28:39.298Z,9.88
2023-05-13T08:31:07.156Z,8.88
2023-05-13T08:33:33.764Z,9.52
2023-05-13T08:36:01.155Z,7.88
2023-05-13T08:38:27.871Z,8.20
2023-05-13T08:40:54.440Z,8.48
2023-05-13T08:43:23.895Z,8.00
2023-05-13T08:45:51.755Z,8.88
2023-05-13T08:48:20.145Z,8.98
2023-05-13T08:50:47.125Z,9.00
2023-05-13T08:53:14.226Z,9.40
2023-05-13T08:55:40.760Z,8.43
2023-05-13T08:58:07.491Z,8.75
2023-05-13T09:00:34.996Z,8.50
2023-05-13T09:03:01.878Z,8.35
2023-05-13T09:05:29.878Z,8.48
2023-05-13T09:07:57.073Z,8.43
2023-05-13T09:10:23.652Z,8.32
2023-05-13T09:12:51.205Z,8.60
2023-05-13T09:15:19.311Z,7.55
2023-05-13T09:17:49.151Z,8.40
2023-05-13T09:20:17.164Z,7.85
2023-05-13T09:22:49.243Z,7.68
2023-05-13T09:25:17.609Z,7.18
2023-05-13T09:27:45.724Z,7.40
2023-05-13T09:30:12.706Z,7.07
2023-05-13T09:32:39.978Z,6.50
2023-05-13T09:35:11.237Z,7.47
2023-05-13T09:37:37.933Z,6.97
2023-05-13T09:40:10.592Z,6.95
2023-05-13T09:42:41.622Z,6.85
2023-05-13T09:45:09.352Z,6.45
2023-05-13T09:47:36.147Z,7.40
2023-05-13T09:50:03.864Z,6.88
2023-05-13T09:52:30.702Z,6.50
2023-05-13T09:54:57.344Z,7.15
2023-05-13T09:57:27.163Z,6.32
2023-05-13T09:59:56.864Z,5.43
2023-05-13T10:02:24.293Z,6.18
2023-05-13T10:04:52.180Z,5.97
2023-05-13T10:07:19.249Z,6.05
2023-05-13T10:09:46.090Z,5.28
2023-05-13T10:12:14.858Z,6.40
2023-05-13T10:14:43.802Z,6.03
2023-05-13T10:17:10.582Z,5.50
2023-05-13T10:19:37.704Z,5.68
2023-05-13T10:22:05.465Z,5.55
2023-05-13T10:24:32.629Z,5.60
2023-05-13T10:27:00.802Z,5.03
2023-05-13T10:29:28.888Z,5.50
2023-05-13T10:31:58.079Z,6.10
2023-05-13T10:34:26.052Z,5.55
2023-05-13T10:37:08.823Z,4.68
2023-05-13T10:40:06.576Z,4.67
2023-05-13T10:42:46.336Z,4.65
2023-05-13T10:45:16.886Z,4.38
2023-05-13T10:47:50.376Z,4.00
2023-05-13T10:50:24.802Z,4.43
2023-05-13T10:52:55.820Z,4.18
2023-05-13T10:55:22.323Z,4.90
2023-05-13T10:58:07.079Z,4.53
2023-05-13T11:00:34.403Z,3.55
2023-05-13T11:03:13.989Z,3.90
2023-05-13T11:05:43.029Z,3.00
2023-05-13T11:08:09.653Z,3.10
2023-05-13T11:10:36.165Z,2.83
2023-05-13T11:13:21.621Z,2.88
2023-05-13T11:15:50.204Z,2.78
2023-05-13T11:18:18.148Z,3.28
2023-05-13T11:20:53.168Z,3.50
2023-05-13T11:23:20.723Z,3.30
2023-05-13T11:26:08.911Z,3.50
2023-05-13T11:29:00.157Z,3.22
2023-05-13T11:31:28.439Z,3.25
2023-05-13T11:34:17.465Z,3.38
2023-05-13T11:36:45.817Z,2.45
2023-05-13T11:39:15.113Z,3.55
2023-05-13T11:41:44.856Z,2.90
2023-05-13T11:44:13.209Z,2.78
2023-05-13T11:46:49.475Z,2.75
2023-05-13T11:49:31.336Z,3.03
2023-05-13T11:51:58.760Z,2.47
2023-05-13T11:54:25.487Z,3.10
2023-05-13T11:56:51.986Z,2.70
2023-05-13T11:59:18.534Z,3.42
2023-05-13T12:01:45.088Z,2.83
2023-05-13T12:04:11.722Z,2.90
2023-05-13T12:06:44.927Z,2.83
2023-05-13T12:11:39.072Z,2.38
2023-05-13T12:14:05.848Z,2.22
2023-05-13T12:16:32.606Z,2.13
2023-05-13T12:18:59.854Z,2.50
2023-05-13T12:21:31.511Z,2.60
2023-05-13T12:23:59.344Z,2.17
2023-05-13T12:26:26.115Z,2.05
2023-05-13T12:28:57.179Z,2.42
2023-05-13T12:31:23.692Z,2.30
2023-05-13T12:33:50.246Z,2.83
2023-05-13T12:36:18.390Z,2.88
2023-05-13T12:38:56.895Z,2.42
2023-05-13T12:41:28.822Z,2.47
2023-05-13T12:44:00.277Z,2.63
2023-05-13T12:46:27.024Z,2.60
2023-05-13T12:48:55.901Z,2.20
2023-05-13T12:51:23.098Z,2.47
2023-05-13T12:53:49.667Z,2.70
2023-05-13T12:56:16.256Z,2.40
2023-05-13T12:58:44.163Z,2.55
2023-05-13T13:01:10.645Z,2.50
2023-05-13T13:03:37.174Z,2.90
2023-05-13T13:06:04.246Z,2.53
2023-05-13T13:08:30.836Z,2.75
2023-05-13T13:10:59.009Z,2.60
2023-05-13T13:13:25.460Z,2.50
2023-05-13T13:15:53.329Z,2.67
2023-05-13T13:18:19.927Z,2.70
2023-05-13T13:20:46.484Z,2.65
2023-05-13T13:23:13.173Z,2.97
2023-05-13T13:25:39.750Z,2.80
2023-05-13T13:28:06.247Z,2.33
2023-05-13T13:30:32.781Z,2.28
2023-05-13T13:33:00.706Z,2.47
2023-05-13T13:35:27.286Z,2.97
2023-05-13T13:37:53.913Z,2.70
2023-05-13T13:40:20.774Z,2.22
2023-05-13T13:42:47.512Z,2.42
2023-05-13T13:45:14.225Z,2.25
2023-05-13T13:47:40.890Z,2.42
2023-05-13T13:50:09.777Z,2.35
2023-05-13T13:52:36.322Z,2.28
2023-05-13T13:55:02.840Z,2.47
2023-05-13T13:57:29.332Z,2.50
2023-05-13T13:59:55.817Z,2.55
2023-05-13T14:02:22.330Z,2.33
2023-05-13T14:04:48.919Z,2.17
2023-05-13T14:07:16.805Z,2.60
2023-05-13T14:09:43.328Z,2.53
2023-05-13T14:12:09.842Z,3.20
2023-05-13T14:14:36.335Z,2.45
2023-05-13T14:17:03.047Z,2.28
2023-05-13T14:19:29.505Z,2.17
2023-05-13T14:21:55.987Z,2.30
2023-05-13T14:24:24.409Z,2.05
2023-05-13T14:26:51.005Z,2.35
2023-05-13T14:29:17.502Z,2.75
2023-05-13T14:31:44.056Z,2.25
2023-05-13T14:34:10.588Z,2.40
2023-05-13T14:36:37.143Z,2.28
2023-05-13T14:39:03.711Z,2.42
2023-05-13T14:41:31.718Z,2.80
2023-05-13T14:43:58.255Z,2.30
2023-05-13T14:46:24.810Z,2.30
2023-05-13T14:48:51.293Z,2.30
2023-05-13T14:51:17.795Z,2.42
2023-05-13T14:53:44.533Z,2.90
2023-05-13T14:56:11.167Z,2.30
2023-05-13T14:58:39.018Z,1.92
2023-05-13T15:01:05.553Z,2.28
2023-05-13T15:03:32.133Z,2.30
2023-05-13T15:05:58.745Z,2.58
2023-05-13T15:08:25.617Z,2.40
2023-05-13T15:10:52.180Z,2.70
2023-05-13T15:13:18.658Z,2.78
2023-05-13T15:15:46.560Z,2.10
2023-05-13T15:18:13.587Z,1.85
2023-05-13T15:20:40.127Z,2.38
2023-05-13T15:23:06.721Z,2.55
2023-05-13T15:25:33.225Z,2.33
2023-05-13T15:27:59.744Z,2.30
2023-05-13T15:30:26.232Z,2.20
2023-05-13T15:32:54.157Z,2.03
2023-05-13T15:35:20.707Z,2.40
2023-05-13T15:37:47.192Z,2.35
2023-05-13T15:40:14.629Z,2.35
2023-05-13T15:42:41.086Z,2.10
2023-05-13T15:45:08.405Z,2.17
2023-05-13T15:47:35.571Z,2.30
2023-05-13T15:50:05.683Z,2.13
2023-05-13T15:52:32.203Z,2.40
2023-05-13T15:54:58.933Z,2.25
2023-05-13T15:57:25.419Z,2.53
2023-05-13T15:59:51.958Z,2.55
2023-05-13T16:02:18.476Z,2.40
2023-05-13T16:04:45.114Z,2.33
2023-05-13T16:07:12.995Z,2.22
2023-05-13T16:09:39.786Z,2.35
2023-05-13T16:12:07.048Z,2.33
2023-05-13T16:14:33.534Z,2.22
2023-05-13T16:17:00.334Z,2.40
2023-05-13T16:19:26.856Z,2.20
2023-05-13T16:21:53.347Z,2.30
2023-05-13T16:24:21.278Z,2.50
2023-05-13T16:26:47.920Z,2.38
2023-05-13T16:29:14.454Z,2.03
2023-05-13T16:31:40.996Z,2.13
2023-05-13T16:34:07.525Z,2.35
2023-05-13T16:36:34.004Z,2.45
2023-05-13T16:39:00.514Z,2.35
2023-05-13T16:41:28.667Z,1.90
2023-05-13T16:43:55.238Z,2.08
2023-05-13T16:46:21.750Z,2.20
2023-05-13T16:48:48.307Z,2.50
2023-05-13T16:51:14.916Z,2.38
2023-05-13T16:53:41.408Z,2.50
2023-05-13T16:56:08.042Z,2.20
2023-05-13T16:58:35.860Z,2.45
2023-05-13T17:01:02.390Z,2.30
2023-05-13T17:03:28.998Z,2.40
2023-05-13T17:05:55.625Z,2.58
2023-05-13T17:08:22.129Z,2.20
2023-05-13T17:10:48.626Z,2.42
2023-05-13T17:13:15.129Z,2.85
2023-05-13T17:15:42.988Z,2.58
2023-05-13T17:18:09.514Z,2.42
2023-05-13T17:20:36.116Z,2.28
2023-05-13T17:23:02.580Z,2.58
2023-05-13T17:25:29.110Z,2.97
2023-05-13T17:27:55.672Z,2.78
2023-05-13T17:30:22.509Z,2.42
2023-05-13T17:32:50.649Z,2.22
2023-05-13T17:35:17.320Z,2.00
2023-05-13T17:37:43.945Z,1.98
2023-05-13T17:40:11.091Z,2.95
2023-05-13T17:42:37.570Z,3.17
2023-05-13T17:45:04.835Z,2.13
2023-05-13T17:47:32.068Z,2.28
2023-05-13T17:49:59.937Z,2.90
2023-05-13T17:52:26.412Z,2.40
2023-05-13T17:54:52.909Z,1.95
2023-05-13T17:57:19.413Z,2.25
2023-05-13T17:59:45.925Z,2.53
2023-05-13T18:02:12.543Z,2.50
2023-05-13T18:04:39.156Z,2.40
2023-05-13T18:07:07.048Z,2.38
2023-05-13T18:09:33.511Z,2.47
2023-05-13T18:12:00.050Z,2.60
2023-05-13T18:14:26.523Z,2.80
2023-05-13T18:16:53.054Z,2.80
2023-05-13T18:19:19.606Z,2.67
2023-05-13T18:21:46.130Z,2.65
2023-05-13T18:24:13.944Z,2.70
2023-05-13T18:26:40.456Z,3.20
2023-05-13T18:29:06.954Z,2.70
2023-05-13T18:31:33.500Z,2.70
2023-05-13T18:34:00.350Z,2.90
2023-05-13T18:36:26.947Z,3.20
2023-05-13T18:38:53.444Z,3.42
2023-05-13T18:41:21.308Z,3.25
2023-05-13T18:43:48.117Z,3.47
2023-05-13T18:46:14.702Z,3.08
2023-05-13T18:48:41.306Z,3.35
2023-05-13T18:51:07.854Z,3.15
2023-05-13T18:53:34.349Z,3.13
2023-05-13T18:56:00.998Z,3.20
2023-05-13T18:58:28.827Z,3.10
2023-05-13T19:00:55.396Z,3.58
2023-05-13T19:03:22.043Z,3.10
2023-05-13T19:05:48.769Z,2.92
2023-05-13T19:08:15.268Z,3.40
2023-05-13T19:10:41.763Z,3.70
2023-05-13T19:13:08.287Z,3.97
2023-05-13T19:15:36.449Z,3.67
2023-05-13T19:18:03.286Z,3.42
2023-05-13T19:20:29.988Z,3.67
2023-05-13T19:22:57.595Z,3.42
2023-05-13T19:25:24.138Z,3.40
2023-05-13T19:27:50.691Z,3.22
2023-05-13T19:30:17.176Z,3.58
2023-05-13T19:32:45.041Z,3.70
2023-05-13T19:35:11.626Z,3.70
2023-05-13T19:37:38.217Z,4.07
2023-05-13T19:40:05.961Z,2.88
2023-05-13T19:42:32.482Z,3.42
2023-05-13T19:44:59.034Z,4.07
2023-05-13T19:47:25.601Z,3.83
2023-05-13T19:49:53.438Z,4.05
2023-05-13T19:52:19.902Z,4.22
2023-05-13T19:54:46.418Z,4.70
2023-05-13T19:57:12.914Z,8.88
2023-05-13T19:59:39.457Z,8.65
2023-05-13T20:02:06.126Z,5.25
2023-05-13T20:04:32.653Z,3.70
2023-05-13T20:07:00.532Z,4.05
2023-05-13T20:09:27.016Z,3.75
2023-05-13T20:11:53.464Z,4.00
2023-05-13T20:14:21.184Z,3.45
2023-05-13T20:16:47.690Z,3.65
2023-05-13T20:19:14.256Z,3.40
2023-05-13T20:21:40.825Z,3.80
2023-05-13T20:24:08.724Z,3.60
2023-05-13T20:26:35.225Z,3.83
2023-05-13T20:29:01.774Z,3.65
2023-05-13T20:31:28.319Z,3.75
2023-05-13T20:33:54.898Z,3.45
2023-05-13T20:36:21.387Z,3.80
2023-05-13T20:38:47.887Z,3.63
2023-05-13T20:41:15.714Z,3.47
2023-05-13T20:43:42.258Z,3.70
2023-05-13T20:46:08.776Z,3.78
2023-05-13T20:48:35.332Z,3.45
2023-05-13T20:51:03.132Z,3.45
2023-05-13T20:53:29.682Z,3.30
2023-05-13T20:55:56.215Z,3.33
2023-05-13T20:58:25.145Z,4.15
2023-05-13T21:00:51.708Z,3.22
2023-05-13T21:03:18.370Z,3.80
2023-05-13T21:05:44.971Z,4.07
2023-05-13T21:08:11.528Z,3.70
2023-05-13T21:10:38.018Z,4.47
2023-05-13T21:13:04.561Z,3.97
2023-05-13T21:15:32.567Z,4.10
2023-05-13T21:17:59.125Z,4.00
2023-05-13T21:20:25.850Z,3.83
2023-05-13T21:22:52.439Z,4.50
2023-05-13T21:25:19.070Z,4.45
2023-05-13T21:27:45.566Z,4.18
2023-05-13T21:30:12.829Z,4.40
2023-05-13T21:32:40.727Z,3.78
2023-05-13T21:35:08.061Z,4.00
2023-05-13T21:37:34.589Z,4.70
2023-05-13T21:40:01.097Z,4.10
2023-05-13T21:42:27.625Z,4.75
2023-05-13T21:44:54.460Z,4.03
2023-05-13T21:47:20.989Z,5.35
2023-05-13T21:49:48.836Z,5.60
2023-05-13T21:52:15.371Z,4.00
2023-05-13T21:54:41.847Z,4.22
2023-05-13T21:57:08.379Z,4.57
2023-05-13T21:59:34.850Z,4.22
2023-05-13T22:02:01.359Z,4.60
2023-05-13T22:04:27.872Z,4.25
2023-05-13T22:06:55.721Z,4.80
2023-05-13T22:09:22.192Z,4.30
2023-05-13T22:11:48.735Z,5.13
2023-05-13T22:14:15.250Z,4.50
2023-05-13T22:16:41.850Z,5.38
2023-05-13T22:19:08.556Z,4.70
2023-05-13T22:21:35.236Z,4.82
2023-05-13T22:24:03.170Z,4.80
2023-05-13T22:26:29.687Z,5.13
2023-05-13T22:28:56.166Z,4.50
2023-05-13T22:31:22.742Z,4.38
2023-05-13T22:33:49.277Z,5.75
2023-05-13T22:36:15.770Z,4.90
2023-05-13T22:38:42.459Z,5.50
2023-05-13T22:41:11.292Z,5.15
2023-05-13T22:43:37.961Z,5.78
2023-05-13T22:46:04.743Z,5.07
2023-05-13T22:48:31.345Z,5.68
2023-05-13T22:50:57.929Z,5.63
2023-05-13T22:53:24.757Z,5.95
2023-05-13T22:55:51.517Z,6.53
2023-05-13T22:58:20.108Z,6.78
2023-05-13T23:00:46.632Z,6.93
2023-05-13T23:03:13.067Z,7.15
2023-05-13T23:05:39.520Z,6.75
2023-05-13T23:08:06.004Z,6.90
2023-05-13T23:10:32.543Z,6.80
2023-05-13T23:12:59.219Z,6.95
2023-05-13T23:15:27.055Z,7.00
2023-05-13T23:17:53.593Z,6.30
2023-05-13T23:20:20.167Z,6.35
2023-05-13T23:22:46.676Z,5.90
2023-05-13T23:25:13.377Z,6.80
2023-05-13T23:27:39.893Z,6.80
2023-05-13T23:30:07.811Z,6.75
2023-05-13T23:32:35.695Z,6.57
2023-05-13T23:35:02.205Z,6.47
2023-05-13T23:37:28.691Z,6.03
2023-05-13T23:39:55.161Z,6.65
2023-05-13T23:42:21.645Z,6.22
2023-05-13T23:44:48.125Z,6.88
2023-05-13T23:47:14.571Z,6.30
2023-05-13T23:49:42.425Z,7.10
2023-05-13T23:52:08.910Z,7.32
2023-05-13T23:54:35.410Z,6.45
2023-05-13T23:57:01.943Z,6.45
2023-05-13T23:59:28.480Z,7.10
